createdAt,value
2023-04-02T00:00:45.678Z,57.98
2023-04-02T00:01:45.724Z,53.00
2023-04-02T00:02:45.701Z,52.31
2023-04-02T00:03:45.769Z,52.73
2023-04-02T00:04:45.675Z,54.47
2023-04-02T00:05:45.678Z,52.86
2023-04-02T00:06:45.696Z,53.83
2023-04-02T00:07:45.666Z,57.43
2023-04-02T00:08:45.647Z,54.45
2023-04-02T00:09:45.638Z,52.38
2023-04-02T00:10:45.622Z,57.31
2023-04-02T00:11:45.647Z,53.47
2023-04-02T00:12:45.609Z,55.04
2023-04-02T00:13:45.642Z,54.49
2023-04-02T00:14:45.582Z,56.14
2023-04-02T00:15:45.605Z,54.34
2023-04-02T00:16:45.637Z,54.20
2023-04-02T00:17:45.584Z,51.10
2023-04-02T00:18:45.566Z,50.65
2023-04-02T00:19:45.586Z,53.55
2023-04-02T00:20:45.549Z,54.65
2023-04-02T00:21:45.602Z,55.30
2023-04-02T00:22:45.537Z,54.49
2023-04-02T00:23:45.547Z,55.39
2023-04-02T00:24:45.526Z,56.70
2023-04-02T00:25:45.691Z,50.87
2023-04-02T00:26:45.547Z,52.79
2023-04-02T00:27:45.536Z,55.88
2023-04-02T00:28:45.517Z,55.36
2023-04-02T00:29:45.511Z,54.49
2023-04-02T00:30:45.489Z,55.60
2023-04-02T00:31:45.575Z,53.32
2023-04-02T00:32:45.524Z,51.73
2023-04-02T00:33:45.504Z,50.78
2023-04-02T00:34:45.454Z,53.81
2023-04-02T00:35:45.499Z,51.75
2023-04-02T00:36:45.489Z,50.56
2023-04-02T00:37:45.461Z,52.95
2023-04-02T00:38:46.822Z,56.75
2023-04-02T00:39:45.450Z,54.14
2023-04-02T00:40:45.426Z,54.63
2023-04-02T00:41:45.431Z,55.81
2023-04-02T00:42:45.411Z,55.06
2023-04-02T00:43:45.403Z,53.58
2023-04-02T00:44:45.427Z,52.53
2023-04-02T00:45:45.447Z,57.45
2023-04-02T00:46:45.374Z,56.12
2023-04-02T00:47:45.440Z,55.94
2023-04-02T00:48:45.370Z,60.39
2023-04-02T00:49:45.371Z,62.66
2023-04-02T00:50:45.344Z,53.34
2023-04-02T00:51:45.360Z,57.89
2023-04-02T00:52:45.366Z,56.68
2023-04-02T00:53:45.347Z,54.72
2023-04-02T00:54:45.338Z,56.66
2023-04-02T00:55:45.346Z,56.28
2023-04-02T00:56:45.321Z,55.12
2023-04-02T00:57:45.344Z,57.96
2023-04-02T00:58:45.310Z,58.09
2023-04-02T00:59:45.319Z,54.64
2023-04-02T01:00:45.346Z,55.72
2023-04-02T01:01:45.345Z,56.60
2023-04-02T01:02:45.357Z,57.34
2023-04-02T01:03:45.400Z,57.36
2023-04-02T01:04:45.285Z,60.70
2023-04-02T01:05:45.311Z,57.72
2023-04-02T01:06:45.255Z,59.58
2023-04-02T01:07:45.252Z,53.99
2023-04-02T01:08:45.261Z,53.70
2023-04-02T01:09:45.261Z,53.29
2023-04-02T01:10:45.236Z,52.77
2023-04-02T01:11:45.261Z,54.58
2023-04-02T01:12:45.221Z,55.85
2023-04-02T01:13:45.224Z,61.65
2023-04-02T01:14:45.233Z,58.48
2023-04-02T01:15:45.247Z,52.33
2023-04-02T01:16:45.198Z,54.39
2023-04-02T01:17:45.299Z,57.26
2023-04-02T01:18:45.204Z,57.85
2023-04-02T01:19:45.279Z,56.77
2023-04-02T01:20:45.157Z,53.14
2023-04-02T01:21:45.179Z,53.21
2023-04-02T01:22:45.148Z,51.16
2023-04-02T01:23:45.158Z,51.73
2023-04-02T01:24:45.156Z,55.54
2023-04-02T01:25:45.191Z,55.88
2023-04-02T01:26:45.145Z,53.38
2023-04-02T01:27:45.166Z,57.60
2023-04-02T01:28:45.160Z,55.01
2023-04-02T01:29:45.143Z,55.27
2023-04-02T01:30:45.117Z,58.55
2023-04-02T01:31:45.401Z,59.61
2023-04-02T01:32:45.126Z,54.47
2023-04-02T01:33:45.126Z,51.36
2023-04-02T01:34:45.089Z,57.62
2023-04-02T01:35:45.114Z,61.47
2023-04-02T01:36:45.093Z,57.39
2023-04-02T01:37:45.103Z,57.81
2023-04-02T01:38:45.110Z,56.02
2023-04-02T01:39:45.101Z,52.42
2023-04-02T01:40:45.071Z,56.79
2023-04-02T01:41:45.073Z,56.38
2023-04-02T01:42:45.044Z,58.85
2023-04-02T01:43:45.060Z,55.25
2023-04-02T01:44:45.056Z,54.66
2023-04-02T01:45:45.081Z,53.95
2023-04-02T01:46:45.112Z,55.49
2023-04-02T01:47:45.061Z,53.74
2023-04-02T01:48:45.026Z,54.96
2023-04-02T01:49:45.023Z,56.41
2023-04-02T01:50:45.004Z,58.91
2023-04-02T01:51:45.036Z,55.51
2023-04-02T01:52:44.991Z,61.19
2023-04-02T01:53:45.008Z,60.02
2023-04-02T01:54:44.992Z,55.32
2023-04-02T01:55:45.000Z,56.87
2023-04-02T01:56:44.971Z,58.44
2023-04-02T01:57:45.001Z,57.59
2023-04-02T01:58:44.958Z,56.80
2023-04-02T01:59:45.004Z,58.38
2023-04-02T02:00:44.999Z,52.95
2023-04-02T02:01:44.977Z,53.99
2023-04-02T02:02:44.999Z,55.61
2023-04-02T02:03:44.981Z,55.80
2023-04-02T02:04:44.929Z,58.35
2023-04-02T02:05:44.940Z,54.41
2023-04-02T02:06:44.922Z,54.97
2023-04-02T02:07:44.923Z,55.76
2023-04-02T02:08:44.929Z,56.62
2023-04-02T02:09:44.933Z,56.25
2023-04-02T02:10:44.906Z,53.88
2023-04-02T02:11:44.918Z,58.14
2023-04-02T02:12:44.893Z,54.69
2023-04-02T02:13:44.908Z,56.06
2023-04-02T02:14:44.925Z,57.71
2023-04-02T02:15:44.889Z,55.70
2023-04-02T02:16:44.939Z,58.51
2023-04-02T02:17:44.949Z,59.88
2023-04-02T02:18:44.859Z,59.21
2023-04-02T02:19:44.896Z,57.56
2023-04-02T02:20:44.847Z,59.21
2023-04-02T02:21:44.868Z,57.71
2023-04-02T02:22:44.843Z,57.00
2023-04-02T02:23:44.847Z,56.68
2023-04-02T02:24:44.841Z,57.09
2023-04-02T02:25:44.862Z,57.92
2023-04-02T02:26:44.827Z,58.04
2023-04-02T02:27:44.833Z,59.48
2023-04-02T02:28:44.811Z,59.27
2023-04-02T02:29:44.821Z,59.16
2023-04-02T02:30:44.803Z,57.58
2023-04-02T02:31:44.885Z,54.55
2023-04-02T02:32:44.824Z,56.26
2023-04-02T02:33:44.795Z,56.30
2023-04-02T02:34:44.769Z,58.68
2023-04-02T02:35:44.801Z,56.80
2023-04-02T02:36:44.774Z,54.45
2023-04-02T02:37:44.773Z,60.27
2023-04-02T02:38:44.760Z,57.11
2023-04-02T02:39:44.761Z,53.98
2023-04-02T02:40:44.733Z,57.06
2023-04-02T02:41:44.777Z,57.36
2023-04-02T02:42:44.752Z,57.77
2023-04-02T02:43:44.749Z,60.05
2023-04-02T02:44:44.714Z,56.38
2023-04-02T02:45:44.752Z,56.03
2023-04-02T02:46:44.712Z,58.11
2023-04-02T02:47:44.775Z,55.86
2023-04-02T02:48:44.689Z,57.23
2023-04-02T02:49:44.712Z,59.71
2023-04-02T02:50:44.703Z,57.61
2023-04-02T02:51:44.707Z,56.95
2023-04-02T02:52:44.703Z,59.89
2023-04-02T02:53:44.704Z,59.05
2023-04-02T02:54:44.661Z,59.61
2023-04-02T02:55:44.666Z,56.03
2023-04-02T02:56:44.676Z,56.31
2023-04-02T02:57:44.666Z,58.52
2023-04-02T02:58:44.650Z,58.03
2023-04-02T02:59:44.652Z,58.96
2023-04-02T03:00:44.625Z,57.04
2023-04-02T03:01:44.712Z,59.24
2023-04-02T03:02:44.817Z,58.48
2023-04-02T03:03:45.070Z,58.94
2023-04-02T03:04:44.603Z,60.87
2023-04-02T03:05:44.613Z,60.42
2023-04-02T03:06:44.592Z,61.75
2023-04-02T03:07:44.600Z,60.08
2023-04-02T03:08:44.599Z,58.29
2023-04-02T03:09:44.599Z,62.77
2023-04-02T03:10:44.564Z,62.79
2023-04-02T03:11:44.600Z,63.75
2023-04-02T03:12:44.573Z,62.95
2023-04-02T03:13:44.578Z,58.86
2023-04-02T03:14:44.618Z,58.08
2023-04-02T03:15:44.591Z,58.44
2023-04-02T03:16:44.531Z,56.88
2023-04-02T03:17:44.575Z,57.78
2023-04-02T03:18:44.529Z,56.87
2023-04-02T03:19:44.541Z,58.35
2023-04-02T03:20:44.527Z,61.54
2023-04-02T03:21:44.524Z,59.17
2023-04-02T03:22:44.517Z,56.00
2023-04-02T03:23:44.533Z,56.14
2023-04-02T03:24:44.509Z,58.22
2023-04-02T03:25:44.508Z,57.84
2023-04-02T03:26:44.483Z,55.66
2023-04-02T03:27:44.518Z,56.92
2023-04-02T03:28:44.475Z,54.69
2023-04-02T03:29:44.509Z,55.37
2023-04-02T03:30:44.489Z,56.27
2023-04-02T03:31:44.565Z,59.78
2023-04-02T03:32:44.490Z,57.05
2023-04-02T03:33:44.460Z,57.31
2023-04-02T03:34:44.442Z,58.17
2023-04-02T03:35:44.467Z,58.21
2023-04-02T03:36:44.427Z,58.22
2023-04-02T03:37:44.473Z,59.59
2023-04-02T03:38:44.425Z,57.20
2023-04-02T03:39:44.462Z,58.88
2023-04-02T03:40:44.408Z,57.80
2023-04-02T03:41:44.441Z,60.31
2023-04-02T03:42:44.409Z,59.50
2023-04-02T03:43:44.408Z,57.44
2023-04-02T03:44:44.400Z,58.33
2023-04-02T03:45:44.419Z,57.76
2023-04-02T03:46:44.493Z,61.15
2023-04-02T03:47:44.457Z,59.09
2023-04-02T03:48:44.370Z,54.21
2023-04-02T03:49:44.418Z,59.10
2023-04-02T03:50:44.371Z,59.18
2023-04-02T03:51:44.393Z,59.31
2023-04-02T03:52:44.354Z,63.64
2023-04-02T03:53:44.383Z,59.44
2023-04-02T03:54:53.967Z,60.96
2023-04-02T03:55:45.369Z,58.12
2023-04-02T03:56:44.345Z,59.17
2023-04-02T03:57:44.364Z,59.15
2023-04-02T03:58:44.321Z,57.26
2023-04-02T03:59:44.352Z,57.93
2023-04-02T04:00:44.316Z,60.12
2023-04-02T04:01:44.361Z,57.85
2023-04-02T04:02:44.365Z,58.43
2023-04-02T04:03:44.384Z,63.18
2023-04-02T04:04:44.292Z,59.31
2023-04-02T04:05:44.303Z,59.89
2023-04-02T04:06:44.285Z,59.43
2023-04-02T04:07:44.322Z,58.29
2023-04-02T04:08:44.266Z,57.18
2023-04-02T04:09:44.283Z,57.45
2023-04-02T04:10:44.298Z,59.95
2023-04-02T04:11:44.270Z,56.80
2023-04-02T04:12:44.237Z,58.80
2023-04-02T04:13:44.292Z,59.33
2023-04-02T04:14:45.372Z,61.68
2023-04-02T04:15:44.247Z,63.14
2023-04-02T04:16:44.250Z,61.97
2023-04-02T04:17:44.254Z,62.73
2023-04-02T04:18:44.218Z,61.93
2023-04-02T04:19:44.246Z,61.93
2023-04-02T04:20:44.202Z,61.92
2023-04-02T04:21:44.218Z,61.11
2023-04-02T04:22:44.195Z,62.87
2023-04-02T04:23:44.208Z,61.82
2023-04-02T04:24:44.195Z,61.12
2023-04-02T04:25:44.185Z,62.16
2023-04-02T04:26:44.182Z,63.40
2023-04-02T04:27:44.202Z,62.09
2023-04-02T04:28:44.170Z,63.27
2023-04-02T04:29:44.197Z,62.64
2023-04-02T04:30:44.170Z,62.37
2023-04-02T04:31:44.186Z,62.50
2023-04-02T04:32:44.170Z,62.46
2023-04-02T04:33:44.178Z,62.35
2023-04-02T04:34:44.124Z,60.84
2023-04-02T04:35:44.185Z,58.48
2023-04-02T04:36:44.119Z,59.71
2023-04-02T04:37:44.122Z,58.72
2023-04-02T04:38:44.123Z,62.40
2023-04-02T04:39:44.137Z,59.68
2023-04-02T04:40:44.113Z,62.15
2023-04-02T04:41:44.128Z,61.08
2023-04-02T04:42:44.103Z,61.65
2023-04-02T04:43:44.102Z,59.49
2023-04-02T04:44:44.074Z,60.03
2023-04-02T04:45:44.135Z,59.76
2023-04-02T04:46:44.084Z,63.26
2023-04-02T04:47:44.106Z,59.60
2023-04-02T04:48:44.057Z,58.18
2023-04-02T04:49:44.055Z,60.61
2023-04-02T04:50:44.068Z,63.79
2023-04-02T04:51:44.082Z,58.42
2023-04-02T04:52:44.047Z,59.68
2023-04-02T04:53:44.040Z,58.85
2023-04-02T04:54:44.030Z,60.65
2023-04-02T04:55:44.068Z,59.82
2023-04-02T04:56:44.029Z,60.31
2023-04-02T04:57:44.032Z,58.89
2023-04-02T04:58:43.997Z,57.22
2023-04-02T04:59:44.023Z,60.48
2023-04-02T05:00:44.000Z,64.09
2023-04-02T05:01:44.054Z,64.72
2023-04-02T05:02:44.024Z,62.94
2023-04-02T05:03:43.983Z,60.87
2023-04-02T05:04:44.042Z,60.98
2023-04-02T05:05:43.989Z,61.67
2023-04-02T05:06:43.962Z,58.60
2023-04-02T05:07:43.969Z,58.96
2023-04-02T05:08:43.958Z,58.92
2023-04-02T05:09:43.984Z,58.46
2023-04-02T05:10:43.955Z,60.36
2023-04-02T05:11:43.954Z,60.93
2023-04-02T05:12:43.932Z,60.08
2023-04-02T05:13:43.928Z,59.93
2023-04-02T05:14:43.923Z,59.45
2023-04-02T05:15:43.992Z,60.49
2023-04-02T05:16:43.906Z,59.80
2023-04-02T05:17:43.981Z,60.25
2023-04-02T05:18:43.890Z,61.77
2023-04-02T05:19:43.917Z,59.18
2023-04-02T05:20:43.874Z,60.34
2023-04-02T05:21:43.895Z,59.94
2023-04-02T05:22:43.885Z,61.29
2023-04-02T05:23:43.920Z,61.07
2023-04-02T05:24:43.860Z,59.70
2023-04-02T05:25:43.864Z,58.91
2023-04-02T05:26:43.855Z,58.61
2023-04-02T05:27:43.875Z,62.24
2023-04-02T05:28:43.833Z,60.11
2023-04-02T05:29:43.865Z,60.00
2023-04-02T05:30:43.828Z,61.27
2023-04-02T05:31:43.891Z,61.90
2023-04-02T05:32:43.857Z,59.65
2023-04-02T05:33:43.826Z,59.12
2023-04-02T05:34:43.811Z,61.61
2023-04-02T05:35:43.854Z,63.76
2023-04-02T05:36:43.821Z,61.80
2023-04-02T05:37:43.814Z,62.42
2023-04-02T05:38:43.788Z,59.89
2023-04-02T05:39:43.788Z,57.79
2023-04-02T05:40:43.786Z,60.78
2023-04-02T05:41:43.791Z,60.37
2023-04-02T05:42:43.767Z,60.85
2023-04-02T05:43:43.774Z,60.87
2023-04-02T05:44:43.756Z,61.32
2023-04-02T05:45:43.783Z,62.28
2023-04-02T05:46:43.810Z,63.40
2023-04-02T05:47:43.789Z,62.95
2023-04-02T05:48:43.768Z,60.82
2023-04-02T05:49:43.737Z,59.08
2023-04-02T05:50:43.729Z,61.03
2023-04-02T05:51:43.726Z,60.68
2023-04-02T05:52:43.696Z,60.43
2023-04-02T05:53:43.726Z,62.41
2023-04-02T05:54:43.714Z,63.46
2023-04-02T05:55:43.705Z,62.89
2023-04-02T05:56:43.679Z,59.37
2023-04-02T05:57:52.867Z,61.16
2023-04-02T05:58:45.632Z,63.57
2023-04-02T05:59:43.671Z,62.08
2023-04-02T06:00:43.678Z,61.02
2023-04-02T06:01:43.710Z,60.49
2023-04-02T06:02:43.714Z,62.47
2023-04-02T06:03:43.771Z,59.66
2023-04-02T06:04:43.646Z,61.88
2023-04-02T06:05:43.650Z,64.70
2023-04-02T06:06:43.649Z,62.10
2023-04-02T06:07:43.636Z,60.86
2023-04-02T06:08:43.621Z,60.06
2023-04-02T06:09:43.621Z,59.33
2023-04-02T06:10:43.609Z,63.52
2023-04-02T06:11:43.620Z,60.32
2023-04-02T06:12:43.627Z,63.79
2023-04-02T06:13:43.634Z,60.67
2023-04-02T06:14:43.625Z,63.81
2023-04-02T06:15:44.500Z,60.92
2023-04-02T06:16:43.625Z,62.18
2023-04-02T06:17:43.613Z,60.19
2023-04-02T06:18:43.566Z,63.46
2023-04-02T06:19:43.589Z,63.43
2023-04-02T06:20:43.561Z,63.43
2023-04-02T06:21:43.566Z,62.59
2023-04-02T06:22:43.539Z,61.14
2023-04-02T06:23:43.553Z,62.30
2023-04-02T06:24:43.552Z,62.30
2023-04-02T06:25:43.534Z,64.95
2023-04-02T06:26:43.519Z,63.50
2023-04-02T06:27:43.536Z,62.30
2023-04-02T06:28:43.512Z,63.81
2023-04-02T06:29:43.536Z,62.81
2023-04-02T06:30:43.566Z,61.22
2023-04-02T06:31:43.517Z,62.21
2023-04-02T06:32:43.523Z,62.88
2023-04-02T06:33:43.502Z,62.03
2023-04-02T06:34:43.484Z,62.76
2023-04-02T06:35:43.587Z,62.54
2023-04-02T06:36:43.465Z,64.01
2023-04-02T06:37:43.485Z,61.94
2023-04-02T06:38:43.462Z,62.01
2023-04-02T06:39:43.469Z,63.56
2023-04-02T06:40:43.446Z,64.77
2023-04-02T06:41:43.481Z,64.23
2023-04-02T06:42:43.435Z,62.67
2023-04-02T06:43:43.454Z,62.65
2023-04-02T06:44:43.446Z,62.06
2023-04-02T06:45:43.481Z,62.70
2023-04-02T06:46:43.450Z,62.38
2023-04-02T06:47:43.483Z,62.24
2023-04-02T06:48:43.410Z,62.82
2023-04-02T06:49:43.426Z,62.30
2023-04-02T06:50:43.420Z,61.83
2023-04-02T06:51:43.416Z,63.26
2023-04-02T06:52:43.389Z,63.12
2023-04-02T06:53:43.408Z,61.32
2023-04-02T06:54:43.425Z,61.61
2023-04-02T06:55:43.427Z,63.91
2023-04-02T06:56:43.367Z,63.59
2023-04-02T06:57:43.402Z,62.63
2023-04-02T06:58:43.363Z,62.49
2023-04-02T06:59:43.365Z,62.93
2023-04-02T07:00:43.370Z,62.97
2023-04-02T07:01:43.401Z,61.05
2023-04-02T07:02:43.385Z,63.85
2023-04-02T07:03:43.351Z,63.79
2023-04-02T07:04:43.323Z,62.35
2023-04-02T07:05:43.357Z,66.14
2023-04-02T07:06:43.358Z,62.58
2023-04-02T07:07:43.320Z,62.76
2023-04-02T07:08:43.315Z,62.42
2023-04-02T07:09:43.309Z,64.27
2023-04-02T07:10:43.290Z,62.27
2023-04-02T07:11:43.305Z,60.70
2023-04-02T07:12:43.289Z,62.36
2023-04-02T07:13:43.299Z,63.52
2023-04-02T07:14:43.286Z,63.86
2023-04-02T07:15:43.302Z,64.87
2023-04-02T07:16:43.276Z,64.54
2023-04-02T07:17:43.367Z,63.17
2023-04-02T07:18:43.244Z,63.78
2023-04-02T07:19:43.253Z,63.84
2023-04-02T07:20:43.239Z,63.89
2023-04-02T07:21:43.243Z,64.56
2023-04-02T07:22:43.213Z,64.82
2023-04-02T07:23:43.268Z,64.91
2023-04-02T07:24:43.199Z,65.55
2023-04-02T07:25:43.262Z,66.09
2023-04-02T07:26:43.234Z,66.85
2023-04-02T07:27:43.209Z,66.07
2023-04-02T07:28:43.208Z,64.90
2023-04-02T07:29:43.207Z,63.85
2023-04-02T07:30:43.194Z,63.60
2023-04-02T07:31:43.235Z,64.06
2023-04-02T07:32:43.227Z,64.55
2023-04-02T07:33:43.208Z,66.15
2023-04-02T07:34:43.170Z,63.90
2023-04-02T07:35:43.202Z,64.60
2023-04-02T07:36:43.156Z,65.14
2023-04-02T07:37:43.160Z,66.18
2023-04-02T07:38:43.140Z,64.27
2023-04-02T07:39:43.202Z,67.32
2023-04-02T07:40:43.126Z,63.47
2023-04-02T07:41:43.145Z,65.75
2023-04-02T07:42:43.129Z,62.37
2023-04-02T07:43:43.137Z,64.80
2023-04-02T07:44:43.126Z,65.42
2023-04-02T07:45:43.129Z,64.67
2023-04-02T07:46:43.149Z,63.65
2023-04-02T07:47:43.165Z,63.37
2023-04-02T07:48:43.100Z,62.87
2023-04-02T07:49:43.107Z,63.55
2023-04-02T07:50:43.085Z,64.52
2023-04-02T07:51:43.093Z,65.13
2023-04-02T07:52:43.075Z,64.80
2023-04-02T07:53:43.074Z,64.14
2023-04-02T07:54:43.079Z,64.14
2023-04-02T07:55:43.089Z,66.01
2023-04-02T07:56:43.067Z,69.70
2023-04-02T07:57:45.655Z,64.63
2023-04-02T07:58:43.074Z,64.78
2023-04-02T07:59:43.061Z,63.91
2023-04-02T08:00:43.044Z,65.55
2023-04-02T08:01:43.335Z,67.79
2023-04-02T08:02:43.096Z,66.47
2023-04-02T08:03:43.100Z,66.78
2023-04-02T08:04:43.025Z,64.20
2023-04-02T08:05:43.029Z,64.16
2023-04-02T08:06:43.021Z,65.55
2023-04-02T08:07:43.032Z,65.97
2023-04-02T08:08:42.989Z,64.36
2023-04-02T08:09:43.004Z,64.44
2023-04-02T08:10:42.991Z,65.71
2023-04-02T08:11:42.995Z,63.87
2023-04-02T08:12:42.988Z,62.03
2023-04-02T08:13:43.014Z,65.00
2023-04-02T08:14:42.962Z,63.50
2023-04-02T08:15:42.994Z,64.00
2023-04-02T08:16:42.969Z,64.27
2023-04-02T08:17:43.023Z,66.56
2023-04-02T08:18:42.947Z,66.45
2023-04-02T08:19:54.101Z,64.81
2023-04-02T08:20:43.955Z,65.10
2023-04-02T08:21:42.953Z,64.14
2023-04-02T08:22:42.922Z,64.75
2023-04-02T08:23:42.974Z,64.21
2023-04-02T08:24:42.928Z,63.69
2023-04-02T08:25:42.924Z,67.07
2023-04-02T08:26:45.423Z,66.50
2023-04-02T08:27:42.923Z,67.30
2023-04-02T08:28:42.924Z,66.28
2023-04-02T08:29:42.924Z,65.92
2023-04-02T08:30:42.898Z,68.01
2023-04-02T08:31:42.890Z,68.47
2023-04-02T08:32:42.882Z,64.85
2023-04-02T08:33:42.915Z,63.82
2023-04-02T08:34:42.902Z,66.20
2023-04-02T08:35:42.905Z,65.87
2023-04-02T08:36:42.858Z,65.77
2023-04-02T08:37:42.849Z,65.67
2023-04-02T08:38:42.862Z,64.78
2023-04-02T08:39:42.835Z,65.18
2023-04-02T08:40:42.847Z,66.44
2023-04-02T08:41:42.849Z,66.52
2023-04-02T08:42:42.825Z,63.95
2023-04-02T08:43:42.850Z,65.83
2023-04-02T08:44:42.844Z,65.28
2023-04-02T08:45:43.013Z,64.07
2023-04-02T08:46:42.800Z,65.84
2023-04-02T08:47:42.855Z,66.36
2023-04-02T08:48:42.815Z,66.23
2023-04-02T08:49:42.812Z,65.58
2023-04-02T08:50:42.811Z,66.02
2023-04-02T08:51:42.783Z,65.94
2023-04-02T08:52:42.763Z,66.33
2023-04-02T08:53:42.799Z,67.24
2023-04-02T08:54:42.814Z,66.85
2023-04-02T08:55:42.799Z,66.30
2023-04-02T08:56:42.736Z,66.24
2023-04-02T08:57:42.745Z,64.53
2023-04-02T08:58:42.734Z,67.25
2023-04-02T08:59:42.739Z,66.94
2023-04-02T09:00:42.726Z,65.90
2023-04-02T09:01:42.816Z,65.99
2023-04-02T09:02:42.750Z,64.79
2023-04-02T09:03:42.752Z,67.59
2023-04-02T09:04:42.747Z,65.85
2023-04-02T09:05:42.730Z,67.22
2023-04-02T09:06:42.736Z,66.91
2023-04-02T09:07:42.699Z,66.34
2023-04-02T09:08:42.694Z,65.92
2023-04-02T09:09:42.689Z,65.22
2023-04-02T09:10:42.703Z,65.61
2023-04-02T09:11:42.678Z,65.39
2023-04-02T09:12:42.663Z,65.95
2023-04-02T09:13:42.678Z,66.51
2023-04-02T09:14:42.663Z,65.73
2023-04-02T09:15:42.717Z,67.71
2023-04-02T09:16:42.663Z,65.63
2023-04-02T09:17:52.899Z,69.27
2023-04-02T09:18:43.634Z,64.42
2023-04-02T09:19:42.640Z,66.32
2023-04-02T09:20:42.622Z,66.82
2023-04-02T09:21:42.652Z,68.60
2023-04-02T09:22:42.637Z,68.69
2023-04-02T09:23:42.632Z,66.00
2023-04-02T09:24:42.612Z,67.60
2023-04-02T09:25:43.395Z,66.76
2023-04-02T09:26:42.596Z,67.95
2023-04-02T09:27:42.639Z,67.99
2023-04-02T09:28:42.584Z,65.78
2023-04-02T09:29:42.583Z,65.95
2023-04-02T09:30:42.580Z,66.53
2023-04-02T09:31:42.633Z,66.31
2023-04-02T09:32:42.575Z,66.12
2023-04-02T09:33:42.631Z,68.14
2023-04-02T09:34:42.543Z,67.42
2023-04-02T09:35:42.731Z,68.13
2023-04-02T09:36:42.524Z,66.70
2023-04-02T09:37:42.565Z,66.92
2023-04-02T09:38:42.545Z,67.83
2023-04-02T09:39:42.561Z,68.23
2023-04-02T09:40:42.567Z,65.55
2023-04-02T09:41:43.743Z,66.89
2023-04-02T09:42:42.519Z,66.83
2023-04-02T09:43:42.505Z,67.36
2023-04-02T09:44:42.486Z,68.42
2023-04-02T09:45:42.515Z,67.76
2023-04-02T09:46:42.520Z,67.92
2023-04-02T09:47:42.671Z,68.98
2023-04-02T09:48:42.474Z,68.23
2023-04-02T09:49:42.501Z,67.54
2023-04-02T09:50:42.488Z,67.80
2023-04-02T09:51:42.501Z,68.16
2023-04-02T09:52:42.439Z,68.99
2023-04-02T09:53:42.794Z,66.16
2023-04-02T09:54:42.470Z,67.36
2023-04-02T09:55:42.488Z,68.38
2023-04-02T09:56:42.438Z,66.52
2023-04-02T09:57:42.438Z,67.20
2023-04-02T09:58:42.416Z,66.37
2023-04-02T09:59:42.455Z,66.88
2023-04-02T10:00:42.467Z,65.59
2023-04-02T10:01:42.558Z,68.51
2023-04-02T10:02:42.417Z,69.38
2023-04-02T10:03:42.413Z,67.86
2023-04-02T10:04:42.505Z,68.39
2023-04-02T10:05:42.659Z,67.95
2023-04-02T10:06:42.381Z,66.87
2023-04-02T10:07:42.401Z,66.17
2023-04-02T10:08:42.373Z,68.45
2023-04-02T10:09:42.384Z,67.83
2023-04-02T10:10:42.398Z,68.64
2023-04-02T10:11:46.764Z,67.50
2023-04-02T10:12:42.346Z,67.30
2023-04-02T10:13:42.358Z,67.93
2023-04-02T10:14:42.352Z,67.40
2023-04-02T10:15:42.382Z,69.43
2023-04-02T10:16:42.439Z,66.70
2023-04-02T10:17:42.388Z,67.87
2023-04-02T10:18:42.310Z,68.00
2023-04-02T10:19:42.322Z,66.30
2023-04-02T10:20:51.001Z,68.17
2023-04-02T10:21:43.359Z,67.16
2023-04-02T10:22:42.332Z,66.75
2023-04-02T10:23:42.332Z,68.29
2023-04-02T10:24:42.306Z,67.57
2023-04-02T10:25:42.290Z,66.55
2023-04-02T10:26:42.270Z,65.85
2023-04-02T10:27:42.298Z,65.96
2023-04-02T10:28:42.312Z,67.43
2023-04-02T10:29:42.295Z,66.82
2023-04-02T10:30:42.314Z,65.88
2023-04-02T10:31:42.262Z,67.23
2023-04-02T10:32:42.319Z,66.18
2023-04-02T10:33:42.256Z,66.58
2023-04-02T10:34:43.147Z,65.66
2023-04-02T10:35:42.257Z,65.06
2023-04-02T10:36:42.246Z,66.26
2023-04-02T10:37:42.253Z,66.48
2023-04-02T10:38:42.243Z,67.02
2023-04-02T10:39:42.225Z,66.62
2023-04-02T10:40:42.276Z,66.11
2023-04-02T10:41:42.248Z,65.64
2023-04-02T10:42:42.205Z,66.16
2023-04-02T10:43:42.211Z,66.92
2023-04-02T10:44:42.197Z,68.45
2023-04-02T10:45:42.274Z,67.81
2023-04-02T10:46:42.293Z,68.20
2023-04-02T10:47:42.258Z,66.35
2023-04-02T10:48:42.177Z,67.42
2023-04-02T10:49:42.241Z,67.74
2023-04-02T10:50:42.180Z,67.05
2023-04-02T10:51:42.195Z,65.96
2023-04-02T10:52:42.163Z,65.08
2023-04-02T10:53:42.160Z,67.66
2023-04-02T10:54:42.163Z,68.34
2023-04-02T10:55:42.149Z,68.69
2023-04-02T10:56:50.648Z,69.06
2023-04-02T10:57:43.317Z,68.66
2023-04-02T10:58:42.140Z,68.22
2023-04-02T10:59:42.132Z,67.63
2023-04-02T11:00:42.133Z,67.22
2023-04-02T11:01:42.186Z,66.10
2023-04-02T11:02:42.110Z,67.38
2023-04-02T11:03:42.263Z,67.63
2023-04-02T11:04:42.094Z,68.27
2023-04-02T11:05:42.094Z,68.54
2023-04-02T11:06:42.084Z,66.82
2023-04-02T11:07:42.112Z,65.90
2023-04-02T11:08:42.110Z,66.03
2023-04-02T11:09:42.087Z,67.48
2023-04-02T11:10:42.073Z,65.75
2023-04-02T11:11:42.063Z,66.67
2023-04-02T11:12:42.295Z,66.33
2023-04-02T11:13:42.084Z,67.56
2023-04-02T11:14:42.036Z,68.04
2023-04-02T11:15:42.090Z,65.51
2023-04-02T11:16:44.199Z,65.53
2023-04-02T11:17:42.078Z,66.21
2023-04-02T11:18:42.038Z,66.90
2023-04-02T11:19:42.038Z,67.03
2023-04-02T11:20:42.042Z,67.13
2023-04-02T11:21:54.982Z,67.37
2023-04-02T11:22:42.989Z,66.95
2023-04-02T11:23:42.023Z,67.03
2023-04-02T11:24:42.030Z,64.89
2023-04-02T11:25:42.014Z,66.93
2023-04-02T11:26:42.028Z,65.54
2023-04-02T11:27:41.989Z,65.20
2023-04-02T11:28:41.998Z,65.80
2023-04-02T11:29:41.997Z,66.54
2023-04-02T11:30:41.954Z,67.05
2023-04-02T11:31:42.000Z,65.58
2023-04-02T11:32:41.989Z,65.68
2023-04-02T11:33:44.756Z,65.89
2023-04-02T11:34:41.972Z,66.36
2023-04-02T11:35:42.017Z,64.56
2023-04-02T11:36:41.922Z,68.75
2023-04-02T11:37:42.016Z,66.63
2023-04-02T11:38:41.931Z,66.14
2023-04-02T11:39:41.921Z,67.60
2023-04-02T11:40:41.917Z,66.84
2023-04-02T11:41:41.934Z,67.36
2023-04-02T11:42:41.906Z,66.62
2023-04-02T11:43:41.961Z,66.42
2023-04-02T11:44:41.912Z,66.63
2023-04-02T11:45:50.278Z,68.05
2023-04-02T11:46:42.905Z,68.77
2023-04-02T11:47:41.973Z,68.77
2023-04-02T11:48:41.888Z,66.02
2023-04-02T11:49:41.888Z,66.56
2023-04-02T11:50:41.889Z,68.11
2023-04-02T11:51:41.909Z,67.96
2023-04-02T11:52:41.931Z,66.78
2023-04-02T11:53:41.877Z,68.32
2023-04-02T11:54:41.859Z,67.83
2023-04-02T11:55:41.902Z,67.69
2023-04-02T11:56:41.833Z,67.27
2023-04-02T11:57:41.909Z,66.70
2023-04-02T11:58:48.853Z,66.20
2023-04-02T11:59:41.851Z,66.39
2023-04-02T12:00:41.809Z,66.64
2023-04-02T12:01:41.843Z,66.12
2023-04-02T12:02:41.891Z,66.99
2023-04-02T12:03:41.784Z,66.97
2023-04-02T12:04:41.783Z,66.99
2023-04-02T12:05:41.957Z,66.23
2023-04-02T12:06:41.783Z,66.58
2023-04-02T12:07:41.770Z,65.72
2023-04-02T12:08:54.301Z,66.13
2023-04-02T12:09:42.781Z,66.53
2023-04-02T12:10:41.768Z,65.41
2023-04-02T12:11:41.823Z,65.90
2023-04-02T12:12:41.750Z,66.75
2023-04-02T12:13:41.763Z,66.91
2023-04-02T12:14:41.757Z,68.17
2023-04-02T12:15:41.748Z,67.02
2023-04-02T12:16:41.818Z,67.15
2023-04-02T12:17:41.743Z,66.92
2023-04-02T12:18:41.704Z,65.29
2023-04-02T12:19:41.763Z,64.60
2023-04-02T12:20:41.695Z,66.39
2023-04-02T12:21:41.738Z,67.18
2023-04-02T12:22:41.692Z,66.65
2023-04-02T12:23:41.694Z,69.05
2023-04-02T12:24:41.696Z,67.51
2023-04-02T12:25:41.688Z,68.36
2023-04-02T12:26:41.660Z,67.52
2023-04-02T12:27:41.687Z,66.07
2023-04-02T12:28:41.684Z,68.25
2023-04-02T12:29:41.674Z,66.88
2023-04-02T12:30:41.740Z,65.10
2023-04-02T12:31:41.662Z,63.68
2023-04-02T12:32:41.721Z,65.56
2023-04-02T12:33:41.643Z,66.72
2023-04-02T12:34:41.669Z,67.82
2023-04-02T12:35:41.700Z,66.88
2023-04-02T12:36:41.638Z,66.79
2023-04-02T12:37:41.626Z,67.30
2023-04-02T12:38:41.617Z,66.95
2023-04-02T12:39:41.650Z,67.81
2023-04-02T12:40:41.652Z,68.27
2023-04-02T12:41:41.607Z,65.78
2023-04-02T12:42:41.594Z,66.91
2023-04-02T12:43:41.646Z,65.16
2023-04-02T12:44:41.590Z,63.81
2023-04-02T12:45:41.615Z,65.87
2023-04-02T12:46:41.638Z,65.74
2023-04-02T12:47:41.607Z,65.46
2023-04-02T12:48:41.555Z,65.49
2023-04-02T12:49:41.590Z,65.06
2023-04-02T12:50:41.543Z,67.14
2023-04-02T12:51:41.552Z,65.54
2023-04-02T12:52:41.536Z,63.32